createdAt,value
2019-03-24T00:00:19.033Z,47.83
2019-03-24T00:02:47.512Z,44.00
2019-03-24T00:05:15.996Z,49.43
2019-03-24T00:07:44.478Z,46.43
2019-03-24T00:10:13.018Z,42.33
2019-03-24T00:12:41.542Z,41.83
2019-03-24T00:15:10.775Z,30.77
2019-03-24T00:17:39.235Z,34.17
2019-03-24T00:20:10.294Z,26.70
2019-03-24T00:22:38.747Z,25.67
2019-03-24T00:25:07.200Z,23.13
2019-03-24T00:27:35.807Z,20.63
2019-03-24T00:30:05.825Z,25.60
2019-03-24T00:32:34.306Z,20.50
2019-03-24T00:35:02.781Z,24.70
2019-03-24T00:37:31.269Z,22.03
2019-03-24T00:39:59.699Z,21.17
2019-03-24T00:42:28.332Z,24.90
2019-03-24T00:44:56.787Z,19.47
2019-03-24T00:47:25.243Z,21.03
2019-03-24T00:49:53.777Z,23.80
2019-03-24T00:52:22.299Z,22.47
2019-03-24T00:54:50.748Z,23.07
2019-03-24T00:57:19.323Z,23.90
2019-03-24T00:59:47.792Z,21.60
2019-03-24T01:02:16.248Z,25.73
2019-03-24T01:04:44.735Z,23.30
2019-03-24T01:07:13.247Z,24.30
2019-03-24T01:09:41.728Z,24.07
2019-03-24T01:12:10.265Z,24.50
2019-03-24T01:14:38.719Z,25.93
2019-03-24T01:17:07.167Z,27.10
2019-03-24T01:19:35.667Z,23.40
2019-03-24T01:22:04.926Z,26.00
2019-03-24T01:24:33.434Z,26.87
2019-03-24T01:27:01.878Z,24.57
2019-03-24T01:29:30.336Z,26.70
2019-03-24T01:31:58.785Z,26.10
2019-03-24T01:34:27.279Z,25.13
2019-03-24T01:36:55.738Z,25.27
2019-03-24T01:39:24.221Z,30.13
2019-03-24T01:41:52.698Z,27.47
2019-03-24T01:44:21.146Z,27.93
2019-03-24T01:46:49.651Z,25.73
2019-03-24T01:49:18.108Z,28.30
2019-03-24T01:51:46.566Z,26.50
2019-03-24T01:54:15.062Z,25.73
2019-03-24T01:56:43.587Z,22.90
2019-03-24T01:59:12.177Z,22.67
2019-03-24T02:01:40.671Z,30.43
2019-03-24T02:04:09.237Z,26.97
2019-03-24T02:06:38.658Z,25.33
2019-03-24T02:09:09.098Z,26.27
2019-03-24T02:11:37.563Z,26.13
2019-03-24T02:14:06.130Z,25.10
2019-03-24T02:16:34.621Z,23.47
2019-03-24T02:19:03.066Z,25.53
2019-03-24T02:21:32.226Z,26.00
2019-03-24T02:24:00.771Z,25.73
2019-03-24T02:26:29.171Z,24.97
2019-03-24T02:28:57.734Z,24.33
2019-03-24T02:31:26.231Z,25.40
2019-03-24T02:33:54.799Z,29.90
2019-03-24T02:36:23.247Z,30.27
2019-03-24T02:38:51.755Z,30.93
2019-03-24T02:41:20.216Z,24.32
2019-03-24T02:43:48.725Z,31.30
2019-03-24T02:46:24.091Z,21.53
2019-03-24T02:48:47.326Z,26.53
2019-03-24T02:51:15.733Z,24.10
2019-03-24T02:53:44.229Z,25.00
2019-03-24T02:56:12.780Z,28.33
2019-03-24T02:58:41.305Z,26.17
2019-03-24T03:01:09.837Z,24.12
2019-03-24T03:03:38.315Z,26.83
2019-03-24T03:06:06.811Z,33.03
2019-03-24T03:08:35.318Z,26.80
2019-03-24T03:11:03.849Z,25.20
2019-03-24T03:13:32.855Z,26.52
2019-03-24T03:16:01.441Z,25.83
2019-03-24T03:18:30.107Z,29.80
2019-03-24T03:20:58.605Z,34.10
2019-03-24T03:23:27.195Z,39.18
2019-03-24T03:25:55.641Z,46.77
2019-03-24T03:28:24.098Z,43.90
2019-03-24T03:30:52.591Z,41.53
2019-03-24T03:33:21.215Z,38.98
2019-03-24T03:35:49.724Z,40.33
2019-03-24T03:38:18.327Z,36.70
2019-03-24T03:40:47.512Z,36.42
2019-03-24T03:43:16.061Z,32.17
2019-03-24T03:45:44.532Z,31.97
2019-03-24T03:48:13.126Z,32.90
2019-03-24T03:50:43.690Z,31.12
2019-03-24T03:53:14.978Z,29.82
2019-03-24T03:55:46.614Z,25.93
2019-03-24T03:58:15.243Z,27.52
2019-03-24T04:00:43.711Z,28.95
2019-03-24T04:03:12.920Z,28.33
2019-03-24T04:05:41.518Z,27.62
2019-03-24T04:08:10.007Z,29.60
2019-03-24T04:10:38.576Z,26.45
2019-03-24T04:13:07.175Z,28.60
2019-03-24T04:15:35.641Z,29.70
2019-03-24T04:18:04.791Z,26.05
2019-03-24T04:20:33.315Z,27.80
2019-03-24T04:23:01.752Z,28.10
2019-03-24T04:25:30.206Z,28.20
2019-03-24T04:27:58.742Z,30.02
2019-03-24T04:30:27.163Z,31.00
2019-03-24T04:32:55.637Z,30.40
2019-03-24T04:35:24.214Z,27.48
2019-03-24T04:37:53.499Z,28.40
2019-03-24T04:40:21.983Z,29.52
2019-03-24T04:42:50.494Z,28.47
2019-03-24T04:45:18.941Z,29.32
2019-03-24T04:47:47.426Z,30.32
2019-03-24T04:50:15.895Z,28.40
2019-03-24T04:52:44.389Z,31.33
2019-03-24T04:55:12.827Z,25.75
2019-03-24T04:57:41.345Z,27.00
2019-03-24T05:00:10.486Z,27.60
2019-03-24T05:02:39.030Z,25.08
2019-03-24T05:05:08.447Z,32.60
2019-03-24T05:07:37.016Z,26.77
2019-03-24T05:10:07.359Z,29.13
2019-03-24T05:12:35.860Z,30.45
2019-03-24T05:15:05.565Z,30.20
2019-03-24T05:17:33.983Z,27.93
2019-03-24T05:20:02.493Z,28.57
2019-03-24T05:22:30.979Z,27.75
2019-03-24T05:24:59.410Z,26.20
2019-03-24T05:27:27.932Z,30.97
2019-03-24T05:29:56.419Z,26.80
2019-03-24T05:32:25.003Z,26.17
2019-03-24T05:34:53.587Z,29.65
2019-03-24T05:37:22.029Z,28.77
2019-03-24T05:39:50.656Z,29.72
2019-03-24T05:42:19.235Z,29.02
2019-03-24T05:44:47.710Z,28.67
2019-03-24T05:47:16.218Z,28.77
2019-03-24T05:49:44.702Z,30.97
2019-03-24T05:52:13.140Z,29.73
2019-03-24T05:54:41.750Z,27.60
2019-03-24T05:57:10.235Z,30.40
2019-03-24T05:59:38.807Z,29.10
2019-03-24T06:02:07.290Z,27.37
2019-03-24T06:04:35.734Z,31.23
2019-03-24T06:07:04.191Z,32.77
2019-03-24T06:09:32.692Z,31.40
2019-03-24T06:12:01.149Z,29.00
2019-03-24T06:14:29.599Z,25.90
2019-03-24T06:16:58.145Z,27.40
2019-03-24T06:19:26.991Z,31.27
2019-03-24T06:21:55.446Z,27.73
2019-03-24T06:24:23.971Z,28.27
2019-03-24T06:26:52.511Z,32.03
2019-03-24T06:29:20.991Z,27.10
2019-03-24T06:31:49.577Z,26.93
2019-03-24T06:34:17.986Z,27.80
2019-03-24T06:36:46.444Z,27.63
2019-03-24T06:39:15.021Z,24.80
2019-03-24T06:41:43.909Z,26.63
2019-03-24T06:44:12.802Z,31.23
2019-03-24T06:46:41.797Z,26.73
2019-03-24T06:49:10.687Z,32.30
2019-03-24T06:51:39.573Z,25.23
2019-03-24T06:54:08.570Z,29.13
2019-03-24T06:56:37.460Z,25.73
2019-03-24T06:59:06.351Z,31.67
2019-03-24T07:01:35.343Z,35.60
2019-03-24T07:04:04.337Z,37.80
2019-03-24T07:06:34.786Z,32.73
2019-03-24T07:09:06.118Z,37.10
2019-03-24T07:11:35.105Z,37.50
2019-03-24T07:14:04.099Z,40.97
2019-03-24T07:16:33.091Z,37.50
2019-03-24T07:19:01.985Z,32.07
2019-03-24T07:21:30.873Z,36.80
2019-03-24T07:24:00.595Z,35.87
2019-03-24T07:26:30.293Z,38.40
2019-03-24T07:28:59.184Z,38.70
2019-03-24T07:31:28.177Z,38.53
2019-03-24T07:33:57.170Z,43.93
2019-03-24T07:36:26.060Z,40.07
2019-03-24T07:38:54.952Z,39.70
2019-03-24T07:41:23.945Z,45.20
2019-03-24T07:43:52.937Z,43.70
2019-03-24T07:46:21.829Z,38.70
2019-03-24T07:48:50.719Z,42.70
2019-03-24T07:51:19.610Z,43.33
2019-03-24T07:53:48.504Z,39.67
2019-03-24T07:56:17.496Z,38.97
2019-03-24T07:58:46.381Z,38.77
2019-03-24T08:01:15.275Z,35.67
2019-03-24T08:03:44.170Z,37.53
2019-03-24T08:06:13.058Z,36.20
2019-03-24T08:08:44.480Z,39.13
2019-03-24T08:11:12.580Z,35.10
2019-03-24T08:13:52.864Z,38.53
2019-03-24T08:16:11.999Z,35.00
2019-03-24T08:18:41.097Z,40.23
2019-03-24T08:21:09.888Z,40.03
2019-03-24T08:23:38.844Z,39.60
2019-03-24T08:26:07.772Z,37.93
2019-03-24T08:28:36.762Z,36.47
2019-03-24T08:31:05.858Z,41.20
2019-03-24T08:33:34.747Z,38.07
2019-03-24T08:36:03.615Z,40.33
2019-03-24T08:38:32.489Z,38.23
2019-03-24T08:41:01.342Z,36.57
2019-03-24T08:43:30.480Z,38.60
2019-03-24T08:45:59.364Z,37.10
2019-03-24T08:48:28.300Z,35.90
2019-03-24T08:50:57.315Z,39.70
2019-03-24T08:53:26.261Z,37.30
2019-03-24T08:55:55.242Z,37.30
2019-03-24T08:58:24.325Z,38.07
2019-03-24T09:00:53.173Z,37.53
2019-03-24T09:03:22.157Z,37.43
2019-03-24T09:05:51.148Z,38.03
2019-03-24T09:08:20.104Z,38.37
2019-03-24T09:10:49.047Z,38.40
2019-03-24T09:13:17.931Z,37.60
2019-03-24T09:15:46.876Z,38.13
2019-03-24T09:18:15.880Z,38.80
2019-03-24T09:20:44.794Z,37.40
2019-03-24T09:23:13.795Z,37.83
2019-03-24T09:25:42.697Z,39.23
2019-03-24T09:28:11.648Z,37.77
2019-03-24T09:30:42.142Z,36.47
2019-03-24T09:33:11.122Z,34.80
2019-03-24T09:35:40.066Z,36.53
2019-03-24T09:38:08.908Z,35.70
2019-03-24T09:40:38.007Z,37.10
2019-03-24T09:43:07.269Z,36.73
2019-03-24T09:45:36.315Z,38.13
2019-03-24T09:48:05.617Z,38.27
2019-03-24T09:50:34.659Z,36.27
2019-03-24T09:53:03.731Z,36.70
2019-03-24T09:55:32.607Z,36.03
2019-03-24T09:58:01.523Z,33.30
2019-03-24T10:00:30.690Z,36.63
2019-03-24T10:02:59.591Z,35.20
2019-03-24T10:05:28.448Z,33.33
2019-03-24T10:07:57.762Z,35.80
2019-03-24T10:10:26.612Z,36.17
2019-03-24T10:12:55.577Z,34.60
2019-03-24T10:15:24.519Z,34.70
2019-03-24T10:17:53.364Z,34.13
2019-03-24T10:20:22.375Z,37.53
2019-03-24T10:22:51.591Z,35.37
2019-03-24T10:25:20.615Z,36.37
2019-03-24T10:27:49.496Z,34.67
2019-03-24T10:30:18.498Z,36.67
2019-03-24T10:32:47.342Z,36.50
2019-03-24T10:35:16.387Z,36.77
2019-03-24T10:37:45.384Z,41.90
2019-03-24T10:40:14.580Z,40.37
2019-03-24T10:42:43.664Z,38.07
2019-03-24T10:45:12.875Z,39.57
2019-03-24T10:47:41.749Z,38.87
2019-03-24T10:50:10.903Z,35.27
2019-03-24T10:52:39.828Z,38.97
2019-03-24T10:55:12.336Z,39.40
2019-03-24T10:57:41.188Z,40.33
2019-03-24T11:00:14.859Z,41.50
2019-03-24T11:02:43.706Z,39.43
2019-03-24T11:05:12.610Z,39.73
2019-03-24T11:07:41.711Z,40.87
2019-03-24T11:10:11.101Z,39.03
2019-03-24T11:12:39.943Z,42.07
2019-03-24T11:15:10.854Z,38.07
2019-03-24T11:17:39.690Z,43.07
2019-03-24T11:20:09.040Z,60.50
2019-03-24T11:22:39.328Z,41.60
2019-03-24T11:25:09.768Z,35.37
2019-03-24T11:27:38.821Z,39.10
2019-03-24T11:30:13.064Z,38.77
2019-03-24T11:32:42.219Z,38.83
2019-03-24T11:35:11.561Z,41.97
2019-03-24T11:37:40.519Z,38.27
2019-03-24T11:40:12.277Z,38.07
2019-03-24T11:42:41.270Z,39.30
2019-03-24T11:45:13.164Z,37.10
2019-03-24T11:47:42.124Z,40.63
2019-03-24T11:50:12.673Z,37.60
2019-03-24T11:52:41.567Z,35.97
2019-03-24T11:55:10.855Z,39.60
2019-03-24T11:57:39.784Z,39.27
2019-03-24T12:00:11.597Z,37.60
2019-03-24T12:02:40.695Z,39.30
2019-03-24T12:05:10.094Z,41.83
2019-03-24T12:07:39.498Z,39.03
2019-03-24T12:10:09.685Z,40.90
2019-03-24T12:12:38.784Z,40.40
2019-03-24T12:15:08.337Z,38.53
2019-03-24T12:17:37.329Z,35.97
2019-03-24T12:20:08.464Z,38.60
2019-03-24T12:22:37.511Z,40.57
2019-03-24T12:25:07.752Z,39.30
2019-03-24T12:27:36.991Z,40.87
2019-03-24T12:30:08.742Z,36.13
2019-03-24T12:32:37.607Z,39.63
2019-03-24T12:35:09.237Z,39.93
2019-03-24T12:37:38.168Z,45.40
2019-03-24T12:40:10.200Z,38.47
2019-03-24T12:42:40.148Z,40.40
2019-03-24T12:45:10.997Z,37.37
2019-03-24T12:47:40.050Z,37.37
2019-03-24T12:50:10.274Z,37.87
2019-03-24T12:52:39.506Z,42.27
2019-03-24T12:55:08.687Z,39.03
2019-03-24T12:57:37.986Z,38.13
2019-03-24T13:00:11.795Z,36.63
2019-03-24T13:02:41.005Z,37.83
2019-03-24T13:05:11.967Z,38.40
2019-03-24T13:07:40.939Z,39.50
2019-03-24T13:10:10.159Z,38.40
2019-03-24T13:12:39.622Z,36.37
2019-03-24T13:15:10.668Z,32.67
2019-03-24T13:17:39.777Z,37.93
2019-03-24T13:20:19.543Z,39.03
2019-03-24T13:22:39.706Z,36.43
2019-03-24T13:25:09.111Z,35.57
2019-03-24T13:27:38.307Z,36.27
2019-03-24T13:30:08.174Z,37.67
2019-03-24T13:32:37.084Z,33.60
2019-03-24T13:35:06.044Z,36.63
2019-03-24T13:37:34.926Z,31.73
2019-03-24T13:40:03.869Z,37.30
2019-03-24T13:42:32.995Z,36.40
2019-03-24T13:45:01.852Z,37.17
2019-03-24T13:47:30.765Z,37.00
2019-03-24T13:50:00.077Z,38.33
2019-03-24T13:52:29.058Z,32.80
2019-03-24T13:54:58.052Z,38.30
2019-03-24T13:57:27.251Z,36.13
2019-03-24T13:59:56.243Z,38.87
2019-03-24T14:02:25.441Z,43.60
2019-03-24T14:04:54.537Z,35.77
2019-03-24T14:07:23.556Z,37.97
2019-03-24T14:09:52.398Z,36.10
2019-03-24T14:12:21.297Z,37.27
2019-03-24T14:14:50.256Z,34.13
2019-03-24T14:17:19.155Z,36.93
2019-03-24T14:19:48.145Z,39.07
2019-03-24T14:22:17.251Z,38.70
2019-03-24T14:24:46.174Z,37.47
2019-03-24T14:27:15.168Z,37.93
2019-03-24T14:29:44.055Z,34.77
2019-03-24T14:32:13.052Z,39.20
2019-03-24T14:34:43.300Z,39.00
2019-03-24T14:37:12.267Z,36.60
2019-03-24T14:39:41.142Z,34.90
2019-03-24T14:42:10.197Z,36.80
2019-03-24T14:44:39.100Z,37.20
2019-03-24T14:47:08.218Z,36.30
2019-03-24T14:49:37.168Z,37.00
2019-03-24T14:52:06.350Z,33.70
2019-03-24T14:54:35.198Z,36.90
2019-03-24T14:57:04.045Z,29.20
2019-03-24T14:59:32.925Z,34.63
2019-03-24T15:02:03.000Z,35.87
2019-03-24T15:04:31.845Z,33.33
2019-03-24T15:07:00.764Z,28.00
2019-03-24T15:09:29.609Z,36.90
2019-03-24T15:11:58.452Z,30.47
2019-03-24T15:14:27.340Z,31.90
2019-03-24T15:16:56.328Z,36.90
2019-03-24T15:19:25.232Z,29.87
2019-03-24T15:21:54.076Z,32.83
2019-03-24T15:24:22.928Z,32.80
2019-03-24T15:26:51.819Z,30.77
2019-03-24T15:29:20.655Z,29.20
2019-03-24T15:31:49.498Z,41.37
2019-03-24T15:34:18.376Z,35.87
2019-03-24T15:36:47.228Z,35.07
2019-03-24T15:39:16.125Z,32.20
2019-03-24T15:41:45.117Z,34.23
2019-03-24T15:44:13.961Z,40.77
2019-03-24T15:46:42.852Z,36.43
2019-03-24T15:49:11.709Z,30.13
2019-03-24T15:51:40.551Z,30.33
2019-03-24T15:54:09.538Z,25.97
2019-03-24T15:56:38.410Z,37.60
2019-03-24T15:59:07.234Z,38.17
2019-03-24T16:01:36.129Z,32.70
2019-03-24T16:04:05.031Z,35.87
2019-03-24T16:06:33.869Z,31.60
2019-03-24T16:09:02.759Z,34.00
2019-03-24T16:11:31.607Z,37.73
2019-03-24T16:14:01.160Z,38.30
2019-03-24T16:16:30.106Z,30.13
2019-03-24T16:18:59.056Z,49.53
2019-03-24T16:21:31.090Z,43.50
2019-03-24T16:23:58.626Z,42.70
2019-03-24T16:26:27.586Z,46.70
2019-03-24T16:28:56.436Z,35.53
2019-03-24T16:31:25.383Z,40.20
2019-03-24T16:33:54.298Z,33.57
2019-03-24T16:36:23.305Z,35.07
2019-03-24T16:39:02.981Z,38.37
2019-03-24T16:41:22.838Z,28.53
2019-03-24T16:43:51.676Z,31.53
2019-03-24T16:46:20.568Z,27.60
2019-03-24T16:48:49.456Z,27.33
2019-03-24T16:51:18.394Z,35.20
2019-03-24T16:53:47.318Z,35.20
2019-03-24T16:56:16.193Z,31.63
2019-03-24T16:58:45.101Z,30.27
2019-03-24T17:01:13.979Z,32.20
2019-03-24T17:03:42.867Z,33.67
2019-03-24T17:06:11.960Z,32.73
2019-03-24T17:08:40.954Z,30.00
2019-03-24T17:11:09.873Z,33.80
2019-03-24T17:13:38.718Z,35.43
2019-03-24T17:16:07.644Z,29.70
2019-03-24T17:18:36.825Z,33.00
2019-03-24T17:21:05.717Z,33.23
2019-03-24T17:23:43.349Z,33.70
2019-03-24T17:26:14.058Z,34.27
2019-03-24T17:28:47.583Z,35.83
2019-03-24T17:31:22.815Z,33.07
2019-03-24T17:34:02.660Z,36.70
2019-03-24T17:36:30.683Z,33.60
2019-03-24T17:39:24.731Z,35.60
2019-03-24T17:41:57.759Z,35.83
2019-03-24T17:44:29.410Z,35.03
2019-03-24T17:47:02.118Z,35.50
2019-03-24T17:49:53.981Z,36.60
2019-03-24T17:52:34.439Z,34.03
2019-03-24T17:55:12.886Z,39.90
2019-03-24T17:57:55.347Z,38.73
2019-03-24T18:00:57.346Z,36.40
2019-03-24T18:03:31.254Z,35.53
2019-03-24T18:06:05.276Z,36.00
2019-03-24T18:08:39.221Z,35.00
2019-03-24T18:11:19.590Z,34.10
2019-03-24T18:13:49.531Z,33.87
2019-03-24T18:16:25.154Z,36.10
2019-03-24T18:19:03.168Z,40.70
2019-03-24T18:21:42.311Z,37.63
2019-03-24T18:24:11.957Z,34.87
2019-03-24T18:26:40.767Z,34.03
2019-03-24T18:29:09.611Z,35.73
2019-03-24T18:31:38.504Z,36.30
2019-03-24T18:34:07.391Z,41.40
2019-03-24T18:36:36.826Z,41.93
2019-03-24T18:39:07.826Z,36.27
2019-03-24T18:41:36.732Z,39.23
2019-03-24T18:44:05.660Z,45.20
2019-03-24T18:46:34.560Z,47.70
2019-03-24T18:49:03.411Z,43.57
2019-03-24T18:51:32.350Z,50.50
2019-03-24T18:54:02.715Z,43.03
2019-03-24T18:56:31.668Z,41.80
2019-03-24T18:59:00.504Z,36.37
2019-03-24T19:01:29.396Z,37.77
2019-03-24T19:03:58.279Z,33.07
2019-03-24T19:06:27.129Z,38.83
2019-03-24T19:08:56.148Z,34.10
2019-03-24T19:11:25.282Z,36.30
2019-03-24T19:13:58.570Z,32.80
2019-03-24T19:16:27.447Z,34.47
2019-03-24T19:18:56.554Z,38.43
2019-03-24T19:21:25.585Z,34.30
2019-03-24T19:23:55.939Z,34.47
2019-03-24T19:26:25.028Z,31.17
2019-03-24T19:28:53.915Z,30.90
2019-03-24T19:31:22.762Z,32.20
2019-03-24T19:33:51.744Z,36.80
2019-03-24T19:36:21.456Z,29.83
2019-03-24T19:38:50.349Z,29.97
2019-03-24T19:41:19.274Z,33.40
2019-03-24T19:43:48.266Z,27.40
2019-03-24T19:46:17.156Z,28.30
2019-03-24T19:48:46.354Z,34.00
2019-03-24T19:51:15.350Z,34.60
2019-03-24T19:53:44.340Z,37.70
2019-03-24T19:56:13.336Z,35.33
2019-03-24T19:58:44.329Z,36.10
2019-03-24T20:01:13.373Z,39.93
2019-03-24T20:03:43.576Z,39.23
2019-03-24T20:06:12.690Z,41.77
2019-03-24T20:08:41.680Z,37.27
2019-03-24T20:11:10.881Z,48.50
2019-03-24T20:13:39.856Z,42.83
2019-03-24T20:16:08.761Z,41.33
2019-03-24T20:18:37.573Z,50.10
2019-03-24T20:21:06.541Z,43.67
2019-03-24T20:23:35.359Z,44.70
2019-03-24T20:26:04.529Z,45.07
2019-03-24T20:28:33.522Z,44.70
2019-03-24T20:31:02.442Z,50.27
2019-03-24T20:33:32.515Z,50.00
2019-03-24T20:36:01.656Z,55.57
2019-03-24T20:38:30.598Z,43.70
2019-03-24T20:40:59.533Z,50.70
2019-03-24T20:43:28.372Z,50.20
2019-03-24T20:45:57.321Z,52.50
2019-03-24T20:48:26.286Z,55.47
2019-03-24T20:50:55.177Z,51.67
2019-03-24T20:53:24.037Z,51.80
2019-03-24T20:55:52.924Z,49.33
2019-03-24T20:58:21.798Z,49.80
2019-03-24T21:00:50.716Z,46.00
2019-03-24T21:03:21.072Z,56.00
2019-03-24T21:05:50.052Z,44.60
2019-03-24T21:08:19.977Z,51.87
2019-03-24T21:10:48.864Z,48.77
2019-03-24T21:13:17.754Z,49.47
2019-03-24T21:15:46.851Z,46.70
2019-03-24T21:18:16.210Z,48.30
2019-03-24T21:20:46.585Z,51.13
2019-03-24T21:23:16.271Z,45.37
2019-03-24T21:25:45.178Z,56.23
2019-03-24T21:28:15.515Z,46.77
2019-03-24T21:30:46.082Z,46.00
2019-03-24T21:33:15.546Z,48.37
2019-03-24T21:35:45.037Z,51.27
2019-03-24T21:38:15.005Z,46.70
2019-03-24T21:40:45.007Z,49.10
2019-03-24T21:43:14.609Z,53.43
2019-03-24T21:45:43.577Z,49.43
2019-03-24T21:48:12.571Z,50.50
2019-03-24T21:50:41.563Z,48.27
2019-03-24T21:53:10.452Z,46.03
2019-03-24T21:55:39.343Z,50.90
2019-03-24T21:58:08.234Z,48.50
2019-03-24T22:00:38.711Z,46.60
2019-03-24T22:03:08.370Z,48.43
2019-03-24T22:05:38.152Z,53.70
2019-03-24T22:08:07.279Z,52.33
2019-03-24T22:10:36.476Z,50.27
2019-03-24T22:13:06.187Z,54.57
2019-03-24T22:15:35.077Z,49.60
2019-03-24T22:18:03.948Z,51.30
2019-03-24T22:20:32.861Z,47.47
2019-03-24T22:23:01.744Z,48.70
2019-03-24T22:25:30.743Z,48.50
2019-03-24T22:27:59.634Z,51.93
2019-03-24T22:30:29.390Z,53.93
2019-03-24T22:32:59.058Z,46.13
2019-03-24T22:35:27.945Z,49.53
2019-03-24T22:37:56.835Z,49.83
2019-03-24T22:40:25.820Z,48.43
2019-03-24T22:42:54.719Z,45.90
2019-03-24T22:45:23.610Z,48.63
2019-03-24T22:47:52.503Z,48.87
2019-03-24T22:50:21.392Z,49.07
2019-03-24T22:52:50.384Z,47.63
2019-03-24T22:55:19.277Z,53.63
2019-03-24T22:57:48.167Z,46.33
2019-03-24T23:00:23.305Z,45.63
2019-03-24T23:02:53.116Z,48.83
2019-03-24T23:05:21.989Z,50.20
2019-03-24T23:07:50.897Z,57.83
2019-03-24T23:10:19.789Z,53.37
2019-03-24T23:12:48.679Z,51.77
2019-03-24T23:15:17.503Z,54.47
2019-03-24T23:17:46.461Z,49.27
2019-03-24T23:20:16.888Z,53.73
2019-03-24T23:22:45.781Z,47.73
2019-03-24T23:25:15.387Z,52.60
2019-03-24T23:27:44.379Z,52.97
2019-03-24T23:30:15.036Z,51.07
2019-03-24T23:32:44.004Z,49.77
2019-03-24T23:35:12.880Z,53.60
2019-03-24T23:37:41.888Z,48.63
2019-03-24T23:40:11.598Z,50.40
2019-03-24T23:42:40.489Z,51.83
2019-03-24T23:45:09.997Z,53.17
2019-03-24T23:47:38.987Z,50.33
2019-03-24T23:50:09.706Z,51.87
2019-03-24T23:52:38.715Z,53.17
2019-03-24T23:55:09.244Z,53.87
2019-03-24T23:57:38.137Z,49.53
